Time;durP1;ratioP1;P1;durP2;ratioP2;P2;SDS_P1;SDS_P2;PMS_P1;PMS_P2;Temp;Humidity;BMP_temperature;BMP_pressure;BME280_temperature;BME280_humidity;BME280_pressure;Samples;Min_cycle;Max_cycle;Signal;HPM_P1;HPM_P2
2021/10/08 00:00:45;;;;;;;13.03;11.80;;;10.40;99.90;;;;;;2660640;28;20301;-71
2021/10/08 00:02:02;;;;;;;12.40;11.25;;;10.40;99.90;;;;;;2657612;28;20523;-71
2021/10/08 00:03:21;;;;;;;12.10;10.90;;;10.40;99.90;;;;;;2657149;28;20203;-71
2021/10/08 00:04:39;;;;;;;13.35;11.95;;;10.40;99.90;;;;;;2656775;28;20242;-71
2021/10/08 00:05:57;;;;;;;13.90;12.57;;;10.40;99.90;;;;;;2657724;28;20535;-70
2021/10/08 00:07:15;;;;;;;14.13;12.40;;;10.30;99.90;;;;;;2657649;28;20205;-71
2021/10/08 00:08:33;;;;;;;12.38;11.25;;;10.30;99.90;;;;;;2657865;28;20585;-70
2021/10/08 00:09:52;;;;;;;13.02;11.63;;;10.30;99.90;;;;;;2657944;28;20206;-71
2021/10/08 00:11:09;;;;;;;14.55;11.50;;;10.20;99.90;;;;;;2658076;28;20229;-70
2021/10/08 00:12:28;;;;;;;11.83;10.63;;;10.20;99.90;;;;;;2657809;28;20230;-71
2021/10/08 00:13:45;;;;;;;13.55;12.15;;;10.20;99.90;;;;;;2657968;28;20276;-71
2021/10/08 00:15:04;;;;;;;13.90;12.47;;;10.20;99.90;;;;;;2659357;28;20304;-71
2021/10/08 00:16:22;;;;;;;12.55;11.35;;;10.20;99.90;;;;;;2657746;28;20241;-71
2021/10/08 00:17:40;;;;;;;12.65;11.35;;;10.20;99.90;;;;;;2658296;28;20199;-71
2021/10/08 00:18:58;;;;;;;12.93;11.53;;;10.10;99.90;;;;;;2658234;28;20207;-70
2021/10/08 00:20:18;;;;;;;13.85;11.73;;;10.10;99.90;;;;;;2658182;28;20198;-71
2021/10/08 00:21:35;;;;;;;13.50;12.10;;;10.10;99.90;;;;;;2660356;28;20214;-71
2021/10/08 00:22:54;;;;;;;15.63;11.43;;;10.00;99.90;;;;;;2657778;28;20199;-71
2021/10/08 00:24:13;;;;;;;12.32;11.13;;;10.00;99.90;;;;;;2657461;28;20206;-72
2021/10/08 00:25:30;;;;;;;11.88;10.50;;;9.90;99.90;;;;;;2657462;28;20775;-70
2021/10/08 00:26:49;;;;;;;13.23;12.03;;;9.90;99.90;;;;;;2662853;28;20206;-71
2021/10/08 00:28:08;;;;;;;13.45;12.18;;;9.80;99.90;;;;;;2652095;28;20446;-70
2021/10/08 00:29:26;;;;;;;13.80;11.75;;;9.80;99.90;;;;;;2647499;28;20208;-70
2021/10/08 00:30:44;;;;;;;14.38;13.10;;;9.70;99.90;;;;;;2657563;28;20614;-71
2021/10/08 00:32:02;;;;;;;14.67;13.17;;;9.60;99.90;;;;;;2660179;28;20285;-71
2021/10/08 00:33:20;;;;;;;13.82;12.45;;;9.50;99.90;;;;;;2657180;28;20203;-71
2021/10/08 00:34:39;;;;;;;14.57;13.17;;;9.50;99.90;;;;;;2657121;28;20347;-71
2021/10/08 00:35:57;;;;;;;13.10;11.93;;;9.50;99.90;;;;;;2657328;28;20248;-71
2021/10/08 00:37:15;;;;;;;13.55;12.25;;;9.40;99.90;;;;;;2657507;28;20199;-71
2021/10/08 00:38:33;;;;;;;14.07;12.77;;;9.30;99.90;;;;;;2657254;28;20211;-70
2021/10/08 00:39:51;;;;;;;16.80;12.50;;;9.30;99.90;;;;;;2657697;28;20195;-70
2021/10/08 00:41:10;;;;;;;13.63;12.23;;;9.20;99.90;;;;;;2658112;28;20335;-71
2021/10/08 00:42:30;;;;;;;13.98;12.45;;;9.20;99.90;;;;;;2657750;28;20316;-70
2021/10/08 00:43:47;;;;;;;13.27;11.88;;;9.10;99.90;;;;;;2656131;28;20203;-70
2021/10/08 00:45:06;;;;;;;14.07;12.77;;;9.10;99.90;;;;;;2661016;28;20916;-71
2021/10/08 00:46:23;;;;;;;13.23;11.85;;;9.10;99.90;;;;;;2659098;28;20202;-71
2021/10/08 00:47:42;;;;;;;14.43;12.93;;;9.20;99.90;;;;;;2657524;28;20641;-71
2021/10/08 00:49:00;;;;;;;14.15;12.85;;;9.20;99.90;;;;;;2657290;28;20203;-70
2021/10/08 00:50:18;;;;;;;15.35;12.50;;;9.20;99.90;;;;;;2659456;28;20250;-70
2021/10/08 00:51:36;;;;;;;15.17;13.77;;;9.10;99.90;;;;;;2657217;28;20300;-71
2021/10/08 00:52:54;;;;;;;14.27;12.88;;;9.10;99.90;;;;;;2657317;28;20206;-71
2021/10/08 00:54:13;;;;;;;15.80;14.15;;;9.00;99.90;;;;;;2657038;28;20307;-70
2021/10/08 00:55:30;;;;;;;14.43;12.93;;;9.00;99.90;;;;;;2653315;28;20204;-70
2021/10/08 00:56:49;;;;;;;13.77;12.10;;;9.00;99.90;;;;;;2654813;28;20282;-70
2021/10/08 00:58:06;;;;;;;14.23;12.82;;;9.00;99.90;;;;;;2653310;28;20214;-70
2021/10/08 00:59:25;;;;;;;14.90;13.30;;;9.00;99.90;;;;;;2657053;28;20293;-70
2021/10/08 01:00:43;;;;;;;15.18;13.63;;;8.90;99.90;;;;;;2660165;28;20198;-70
2021/10/08 01:02:00;;;;;;;16.88;13.70;;;8.90;99.90;;;;;;2663125;28;20203;-70
2021/10/08 01:03:19;;;;;;;14.40;13.00;;;8.90;99.90;;;;;;2657110;28;20310;-70
2021/10/08 01:04:37;;;;;;;14.18;12.80;;;8.80;99.90;;;;;;2656810;28;20214;-71
2021/10/08 01:05:56;;;;;;;14.65;12.98;;;8.80;99.90;;;;;;2657594;28;20227;-70
2021/10/08 01:07:14;;;;;;;15.27;13.77;;;8.80;99.90;;;;;;2657198;28;20198;-70
2021/10/08 01:08:33;;;;;;;14.45;12.95;;;8.70;99.90;;;;;;2657629;28;20246;-71
2021/10/08 01:09:50;;;;;;;15.68;13.77;;;8.70;99.90;;;;;;2654349;28;20214;-71
2021/10/08 01:11:09;;;;;;;13.93;12.30;;;8.70;99.90;;;;;;2653205;28;20685;-71
2021/10/08 01:12:27;;;;;;;12.95;11.75;;;8.70;99.90;;;;;;2656926;28;20245;-70
2021/10/08 01:13:45;;;;;;;15.77;13.98;;;8.70;99.90;;;;;;2657504;28;20199;-70
2021/10/08 01:15:04;;;;;;;14.15;12.68;;;8.70;99.90;;;;;;2658055;28;20751;-71
2021/10/08 01:16:23;;;;;;;14.70;13.20;;;8.80;99.90;;;;;;2660369;28;20199;-71
2021/10/08 01:17:41;;;;;;;15.85;14.25;;;8.70;99.90;;;;;;2659183;28;20568;-70
2021/10/08 01:18:59;;;;;;;15.25;13.68;;;8.70;99.90;;;;;;2658810;28;20195;-71
2021/10/08 01:20:17;;;;;;;15.50;13.90;;;8.70;99.90;;;;;;2659872;28;20286;-71
2021/10/08 01:21:36;;;;;;;16.20;14.43;;;8.70;99.90;;;;;;2659138;28;20646;-70
2021/10/08 01:22:57;;;;;;;16.35;14.75;;;8.70;99.90;;;;;;2659391;28;20199;-71
2021/10/08 01:24:16;;;;;;;16.25;14.57;;;8.60;99.90;;;;;;2658415;28;20214;-71
2021/10/08 01:25:34;;;;;;;16.60;15.00;;;8.60;99.90;;;;;;2652050;28;20278;-70
2021/10/08 01:26:53;;;;;;;16.75;14.95;;;8.60;99.90;;;;;;2659041;28;20199;-70
2021/10/08 01:28:10;;;;;;;17.60;15.70;;;8.50;99.90;;;;;;2659208;28;20203;-69
2021/10/08 01:29:29;;;;;;;17.30;15.60;;;8.50;99.90;;;;;;2650644;28;20680;-71
2021/10/08 01:30:46;;;;;;;17.63;15.88;;;8.50;99.90;;;;;;2659247;28;20211;-71
2021/10/08 01:32:04;;;;;;;17.60;15.83;;;8.60;99.90;;;;;;2659782;28;20285;-71
2021/10/08 01:33:23;;;;;;;18.10;16.23;;;8.50;99.90;;;;;;2659288;28;20203;-71
2021/10/08 01:34:40;;;;;;;17.42;15.73;;;8.50;99.90;;;;;;2658482;28;20257;-70
2021/10/08 01:35:59;;;;;;;18.77;16.80;;;8.50;99.90;;;;;;2658846;28;20277;-71
2021/10/08 01:37:16;;;;;;;17.55;15.85;;;8.50;99.90;;;;;;2652099;28;20206;-70
2021/10/08 01:38:35;;;;;;;17.83;16.00;;;8.50;99.90;;;;;;2651774;28;20290;-71
2021/10/08 01:39:53;;;;;;;16.25;14.55;;;8.50;99.90;;;;;;2658070;28;20776;-71
2021/10/08 01:41:11;;;;;;;18.10;15.85;;;8.50;99.90;;;;;;2658485;28;20225;-70
2021/10/08 01:42:29;;;;;;;15.70;13.90;;;8.50;99.90;;;;;;2659125;28;20302;-71
2021/10/08 01:43:48;;;;;;;16.20;14.65;;;8.50;99.90;;;;;;2659277;28;20278;-72
2021/10/08 01:45:06;;;;;;;16.52;14.82;;;8.40;99.90;;;;;;2654103;28;20197;-71
2021/10/08 01:46:24;;;;;;;16.47;14.67;;;8.50;99.90;;;;;;2659277;28;20199;-71
2021/10/08 01:47:42;;;;;;;17.33;15.52;;;8.40;99.90;;;;;;2658388;28;20557;-71
2021/10/08 01:49:00;;;;;;;16.37;14.67;;;8.50;99.90;;;;;;2659489;28;20290;-72
2021/10/08 01:50:18;;;;;;;16.98;15.38;;;8.40;99.90;;;;;;2658954;28;20203;-71
2021/10/08 01:51:36;;;;;;;17.83;14.68;;;8.40;99.90;;;;;;2655462;28;20206;-71
2021/10/08 01:52:54;;;;;;;19.00;15.47;;;8.50;99.90;;;;;;2659180;28;20231;-71
2021/10/08 01:54:12;;;;;;;18.27;15.20;;;8.50;99.90;;;;;;2655066;28;20203;-71
2021/10/08 01:55:30;;;;;;;19.87;15.93;;;8.50;99.90;;;;;;2657289;28;20261;-70
2021/10/08 01:56:49;;;;;;;17.35;15.65;;;8.50;99.90;;;;;;2658892;28;20202;-71
2021/10/08 01:58:07;;;;;;;16.95;15.15;;;8.50;99.90;;;;;;2659381;28;20203;-71
2021/10/08 01:59:25;;;;;;;16.80;15.10;;;8.50;99.90;;;;;;2659016;28;20203;-71
2021/10/08 02:00:43;;;;;;;15.73;14.13;;;8.40;99.90;;;;;;2651649;28;20243;-70
2021/10/08 02:02:00;;;;;;;17.90;15.95;;;8.40;99.90;;;;;;2658616;28;20195;-71
2021/10/08 02:03:19;;;;;;;20.23;16.40;;;8.40;99.90;;;;;;2658624;28;20293;-72
2021/10/08 02:04:37;;;;;;;17.63;15.73;;;8.40;99.90;;;;;;2657986;28;20202;-70
2021/10/08 02:05:56;;;;;;;17.35;15.65;;;8.40;99.90;;;;;;2658676;28;20708;-71
2021/10/08 02:07:13;;;;;;;17.55;15.75;;;8.40;99.90;;;;;;2656015;28;20203;-71
2021/10/08 02:08:32;;;;;;;20.70;15.07;;;8.50;99.90;;;;;;2657329;28;20393;-70
2021/10/08 02:09:50;;;;;;;17.95;15.55;;;8.40;99.90;;;;;;2656643;28;20606;-70
2021/10/08 02:11:08;;;;;;;18.15;16.33;;;8.40;99.90;;;;;;2658360;28;20199;-70
2021/10/08 02:12:27;;;;;;;20.67;17.63;;;8.40;99.90;;;;;;2653945;28;20257;-70
2021/10/08 02:13:44;;;;;;;21.52;16.40;;;8.40;99.90;;;;;;2659375;28;20257;-71
2021/10/08 02:15:03;;;;;;;18.40;15.07;;;8.30;99.90;;;;;;2657858;28;20246;-71
2021/10/08 02:16:21;;;;;;;16.58;14.77;;;8.30;99.90;;;;;;2659053;28;20656;-71
2021/10/08 02:17:40;;;;;;;18.45;16.45;;;8.30;99.90;;;;;;2660480;28;20202;-71
2021/10/08 02:18:57;;;;;;;18.50;16.52;;;8.30;99.90;;;;;;2659034;28;20214;-71
2021/10/08 02:20:15;;;;;;;15.43;13.87;;;8.30;99.90;;;;;;2658789;28;20848;-71
2021/10/08 02:21:33;;;;;;;17.08;15.38;;;8.20;99.90;;;;;;2651419;28;20489;-70
2021/10/08 02:22:51;;;;;;;17.90;16.00;;;8.20;99.90;;;;;;2657999;28;20261;-71
2021/10/08 02:24:09;;;;;;;18.85;16.92;;;8.30;99.90;;;;;;2658347;28;20195;-70
2021/10/08 02:25:27;;;;;;;21.37;17.90;;;8.30;99.90;;;;;;2658648;28;20209;-70
2021/10/08 02:26:45;;;;;;;21.35;17.13;;;8.20;99.90;;;;;;2657908;28;20341;-70
2021/10/08 02:28:03;;;;;;;20.20;16.80;;;8.30;99.90;;;;;;2654541;28;20722;-71
2021/10/08 02:29:20;;;;;;;20.10;17.23;;;8.20;99.90;;;;;;2658488;28;20202;-71
2021/10/08 02:30:39;;;;;;;20.00;17.00;;;8.20;99.90;;;;;;2658921;28;20198;-70
2021/10/08 02:31:56;;;;;;;20.05;15.80;;;8.20;99.90;;;;;;2658016;28;20203;-71
2021/10/08 02:33:15;;;;;;;22.90;16.63;;;8.20;99.90;;;;;;2658964;28;20282;-70
2021/10/08 02:34:33;;;;;;;18.88;16.75;;;8.20;99.90;;;;;;2655495;28;20219;-71
2021/10/08 02:35:52;;;;;;;18.90;17.00;;;8.20;99.90;;;;;;2660083;28;20206;-71
2021/10/08 02:37:10;;;;;;;20.95;16.90;;;8.20;99.90;;;;;;2663581;28;20199;-70
2021/10/08 02:38:28;;;;;;;18.85;16.85;;;8.10;99.90;;;;;;2655845;28;20198;-71
2021/10/08 02:39:46;;;;;;;20.80;17.47;;;8.10;99.90;;;;;;2658341;28;20744;-71
2021/10/08 02:41:03;;;;;;;20.83;16.50;;;8.20;99.90;;;;;;2658876;28;20203;-71
2021/10/08 02:42:22;;;;;;;17.13;15.43;;;8.20;99.90;;;;;;2659096;28;20205;-72
2021/10/08 02:43:40;;;;;;;17.63;15.77;;;8.10;99.90;;;;;;2657991;28;20203;-71
2021/10/08 02:44:59;;;;;;;19.95;17.90;;;8.10;99.90;;;;;;2657906;28;20203;-71
2021/10/08 02:46:17;;;;;;;18.95;16.15;;;8.10;99.90;;;;;;2658840;28;20223;-71
2021/10/08 02:47:36;;;;;;;18.20;15.55;;;8.10;99.90;;;;;;2658729;28;20315;-71
2021/10/08 02:48:54;;;;;;;18.95;16.27;;;8.20;99.90;;;;;;2658328;28;20199;-71
2021/10/08 02:50:12;;;;;;;22.83;16.98;;;8.20;99.90;;;;;;2658578;28;20253;-71
2021/10/08 02:51:33;;;;;;;18.25;16.45;;;8.30;99.90;;;;;;2658625;28;20195;-71
2021/10/08 02:52:51;;;;;;;16.90;15.23;;;8.30;99.90;;;;;;2658448;28;20689;-71
2021/10/08 02:54:09;;;;;;;20.05;17.60;;;8.30;99.90;;;;;;2656291;28;20246;-70
2021/10/08 02:55:27;;;;;;;18.63;16.73;;;8.30;99.90;;;;;;2657830;28;20649;-71
2021/10/08 02:56:46;;;;;;;18.00;16.25;;;8.20;99.90;;;;;;2658605;28;20203;-70
2021/10/08 02:58:04;;;;;;;18.13;15.32;;;8.20;99.90;;;;;;2658690;28;20199;-71
2021/10/08 02:59:23;;;;;;;18.80;16.35;;;8.20;99.90;;;;;;2658438;28;20258;-70
2021/10/08 03:00:40;;;;;;;19.67;16.33;;;8.10;99.90;;;;;;2660025;28;20198;-71
2021/10/08 03:01:59;;;;;;;18.37;16.47;;;8.10;99.90;;;;;;2660225;28;20301;-71
2021/10/08 03:03:16;;;;;;;19.77;17.58;;;8.10;99.90;;;;;;2658332;28;20194;-71
2021/10/08 03:04:34;;;;;;;22.10;18.87;;;8.00;99.90;;;;;;2654237;28;20289;-71
2021/10/08 03:05:53;;;;;;;20.77;18.60;;;8.00;99.90;;;;;;2655089;28;20242;-71
2021/10/08 03:07:10;;;;;;;22.25;18.05;;;8.00;99.90;;;;;;2661572;28;20202;-71
2021/10/08 03:08:29;;;;;;;21.50;19.20;;;8.00;99.90;;;;;;2660186;28;20914;-70
2021/10/08 03:09:46;;;;;;;22.00;19.70;;;8.00;99.90;;;;;;2658526;28;20217;-71
2021/10/08 03:11:05;;;;;;;22.17;19.53;;;7.90;99.90;;;;;;2658375;28;20712;-71
2021/10/08 03:12:23;;;;;;;20.50;18.35;;;8.00;99.90;;;;;;2658431;28;20207;-70
2021/10/08 03:13:40;;;;;;;26.33;20.23;;;7.90;99.90;;;;;;2658174;28;20213;-71
2021/10/08 03:14:59;;;;;;;21.53;19.20;;;7.90;99.90;;;;;;2657576;28;20683;-71
2021/10/08 03:16:16;;;;;;;23.40;19.83;;;7.90;99.90;;;;;;2657860;28;20206;-71
2021/10/08 03:17:35;;;;;;;26.67;19.60;;;7.90;99.90;;;;;;2658558;28;20287;-71
2021/10/08 03:18:53;;;;;;;23.75;17.73;;;8.00;99.90;;;;;;2658637;28;20203;-70
2021/10/08 03:20:11;;;;;;;21.52;18.38;;;8.00;99.90;;;;;;2658378;28;20199;-70
2021/10/08 03:21:48;;;;;;;26.97;18.90;;;7.90;99.90;;;;;;2650594;28;20303;-70
2021/10/08 03:23:06;;;;;;;24.38;19.92;;;7.90;99.90;;;;;;2658794;28;20210;-71
2021/10/08 03:24:25;;;;;;;24.63;21.77;;;7.90;99.90;;;;;;2658820;28;20234;-73
2021/10/08 03:25:42;;;;;;;23.65;20.48;;;7.90;99.90;;;;;;2659973;28;20572;-71
2021/10/08 03:27:01;;;;;;;21.30;18.70;;;7.80;99.90;;;;;;2658251;28;20346;-71
2021/10/08 03:28:18;;;;;;;26.17;19.98;;;7.80;99.90;;;;;;2658097;28;20198;-71
2021/10/08 03:29:36;;;;;;;23.10;20.60;;;7.80;99.90;;;;;;2658014;28;20346;-71
2021/10/08 03:30:54;;;;;;;23.25;20.77;;;7.90;99.90;;;;;;2654564;28;20238;-70
2021/10/08 03:32:12;;;;;;;27.00;20.50;;;7.90;99.90;;;;;;2654252;28;20277;-71
2021/10/08 03:33:30;;;;;;;23.67;20.27;;;7.80;99.90;;;;;;2658668;28;20567;-71
2021/10/08 03:34:48;;;;;;;22.47;20.07;;;7.80;99.90;;;;;;2657029;28;20286;-70
2021/10/08 03:36:07;;;;;;;25.45;21.33;;;7.80;99.90;;;;;;2661004;28;20198;-71
2021/10/08 03:37:32;;;;;;;24.13;19.85;;;7.80;99.90;;;;;;2658161;28;20199;-72
2021/10/08 03:38:50;;;;;;;23.45;20.95;;;7.80;99.90;;;;;;2658005;28;20203;-71
2021/10/08 03:40:09;;;;;;;26.33;21.40;;;7.80;99.90;;;;;;2658629;28;20238;-71
2021/10/08 03:41:27;;;;;;;23.55;21.05;;;7.80;99.90;;;;;;2657892;28;20199;-71
2021/10/08 03:42:45;;;;;;;24.25;21.73;;;7.80;99.90;;;;;;2658039;28;20207;-70
2021/10/08 03:44:04;;;;;;;24.63;22.03;;;7.80;99.90;;;;;;2657285;28;20314;-71
2021/10/08 03:45:22;;;;;;;29.70;24.23;;;7.80;99.90;;;;;;2658089;28;20565;-71
2021/10/08 03:46:44;;;;;;;23.65;20.50;;;7.80;99.90;;;;;;2663391;28;20655;-71
2021/10/08 03:48:18;;;;;;;26.15;20.90;;;7.80;99.90;;;;;;2655852;28;20575;-70
2021/10/08 03:49:36;;;;;;;23.77;21.20;;;7.80;99.90;;;;;;2657562;28;20885;-71
2021/10/08 03:50:54;;;;;;;28.83;21.90;;;7.80;99.90;;;;;;2657305;28;20217;-71
2021/10/08 03:52:13;;;;;;;24.35;19.48;;;7.80;99.90;;;;;;2658048;28;20238;-71
2021/10/08 03:53:30;;;;;;;22.88;20.48;;;7.80;99.90;;;;;;2651953;28;20204;-71
2021/10/08 03:54:48;;;;;;;23.10;20.60;;;7.80;99.90;;;;;;2657171;28;20743;-70
2021/10/08 03:56:07;;;;;;;24.08;21.65;;;7.90;99.90;;;;;;2655895;28;20195;-71
2021/10/08 03:57:25;;;;;;;25.60;22.35;;;7.90;99.90;;;;;;2657578;28;20207;-71
2021/10/08 03:58:43;;;;;;;23.67;20.70;;;7.90;99.90;;;;;;2658029;28;20207;-71
2021/10/08 04:00:01;;;;;;;26.03;21.60;;;7.90;99.90;;;;;;2657728;28;20288;-71
2021/10/08 04:01:20;;;;;;;24.42;20.48;;;7.80;99.90;;;;;;2658016;28;20207;-71
2021/10/08 04:02:38;;;;;;;22.17;19.88;;;7.90;99.90;;;;;;2655080;28;20202;-71
2021/10/08 04:03:56;;;;;;;24.67;21.20;;;7.90;99.90;;;;;;2653989;28;20203;-71
2021/10/08 04:05:14;;;;;;;22.27;19.75;;;7.80;99.90;;;;;;2658217;28;20222;-71
2021/10/08 04:06:32;;;;;;;23.07;20.30;;;7.90;99.90;;;;;;2652704;28;20230;-71
2021/10/08 04:07:50;;;;;;;22.60;18.65;;;7.80;99.90;;;;;;2664002;28;20202;-71
2021/10/08 04:09:08;;;;;;;20.47;17.87;;;7.80;99.90;;;;;;2657953;28;20498;-71
2021/10/08 04:10:26;;;;;;;23.00;20.20;;;7.80;99.90;;;;;;2657956;28;20199;-71
2021/10/08 04:11:44;;;;;;;24.77;19.93;;;7.80;99.90;;;;;;2657446;28;20309;-71
2021/10/08 04:13:02;;;;;;;25.35;20.90;;;7.90;99.90;;;;;;2657048;28;20605;-71
2021/10/08 04:14:20;;;;;;;21.63;18.57;;;7.90;99.90;;;;;;2657085;28;20199;-71
2021/10/08 04:15:38;;;;;;;20.02;17.77;;;7.80;99.90;;;;;;2657480;28;20233;-71
2021/10/08 04:16:56;;;;;;;21.67;19.03;;;7.80;99.90;;;;;;2657315;28;20877;-71
2021/10/08 04:18:14;;;;;;;21.23;19.13;;;7.80;99.90;;;;;;2657898;28;20202;-71
2021/10/08 04:19:33;;;;;;;23.45;18.65;;;7.70;99.90;;;;;;2657607;28;20273;-71
2021/10/08 04:20:50;;;;;;;21.63;19.27;;;7.70;99.90;;;;;;2656716;28;20281;-71
2021/10/08 04:22:09;;;;;;;22.37;19.13;;;7.60;99.90;;;;;;2657769;28;20234;-71
2021/10/08 04:23:26;;;;;;;24.10;19.50;;;7.60;99.90;;;;;;2656816;28;20206;-71
2021/10/08 04:24:45;;;;;;;25.87;20.93;;;7.70;99.90;;;;;;2657455;28;20317;-71
2021/10/08 04:26:03;;;;;;;21.20;19.08;;;7.70;99.90;;;;;;2657271;28;20199;-71
2021/10/08 04:27:21;;;;;;;22.35;19.02;;;7.70;99.90;;;;;;2657358;28;20233;-71
2021/10/08 04:28:40;;;;;;;21.33;19.05;;;7.70;99.90;;;;;;2657650;28;20261;-71
2021/10/08 04:29:57;;;;;;;21.98;18.95;;;7.70;99.90;;;;;;2657805;28;20199;-71
2021/10/08 04:31:16;;;;;;;24.10;19.83;;;7.70;99.90;;;;;;2657514;28;20234;-71
2021/10/08 04:32:33;;;;;;;22.58;19.60;;;7.70;99.90;;;;;;2657684;28;20203;-70
2021/10/08 04:33:52;;;;;;;26.60;21.23;;;7.60;99.90;;;;;;2657192;28;20293;-70
2021/10/08 04:35:09;;;;;;;22.70;19.75;;;7.60;99.90;;;;;;2656893;28;20299;-71
2021/10/08 04:36:27;;;;;;;21.87;19.53;;;7.60;99.90;;;;;;2657483;28;20195;-70
2021/10/08 04:37:46;;;;;;;20.58;18.63;;;7.60;99.90;;;;;;2657812;28;20891;-70
2021/10/08 04:39:04;;;;;;;21.83;19.13;;;7.50;99.90;;;;;;2657949;28;20230;-71
2021/10/08 04:40:23;;;;;;;23.75;19.15;;;7.60;99.90;;;;;;2657757;28;20245;-71
2021/10/08 04:41:41;;;;;;;23.52;18.67;;;7.60;99.90;;;;;;2657380;28;20839;-71
2021/10/08 04:43:00;;;;;;;21.35;18.67;;;7.60;99.90;;;;;;2657503;28;20203;-71
2021/10/08 04:44:18;;;;;;;22.73;20.00;;;7.60;99.90;;;;;;2656812;28;20234;-71
2021/10/08 04:45:36;;;;;;;21.23;19.02;;;7.60;99.90;;;;;;2656622;28;20209;-71
2021/10/08 04:46:55;;;;;;;21.48;18.48;;;7.70;99.90;;;;;;2653274;28;20289;-71
2021/10/08 04:48:13;;;;;;;20.70;18.50;;;7.60;99.90;;;;;;2657377;28;20218;-70
2021/10/08 04:49:32;;;;;;;22.75;19.83;;;7.60;99.90;;;;;;2653700;28;20261;-71
2021/10/08 04:50:49;;;;;;;21.48;18.75;;;7.50;99.90;;;;;;2655266;28;20199;-70
2021/10/08 04:52:09;;;;;;;24.07;18.80;;;7.50;99.90;;;;;;2657198;28;21174;-71
2021/10/08 04:53:27;;;;;;;25.45;19.30;;;7.50;99.90;;;;;;2652747;28;20294;-71
2021/10/08 04:54:44;;;;;;;23.75;20.92;;;7.60;99.90;;;;;;2649025;28;20250;-72
2021/10/08 04:56:03;;;;;;;20.77;18.67;;;7.70;99.90;;;;;;2653831;28;20293;-72
2021/10/08 04:57:21;;;;;;;24.73;20.88;;;7.70;99.90;;;;;;2653842;28;20222;-71
2021/10/08 04:58:40;;;;;;;23.90;21.13;;;7.70;99.90;;;;;;2656693;28;20210;-71
2021/10/08 04:59:58;;;;;;;24.83;20.70;;;7.70;99.90;;;;;;2658099;28;20195;-71
2021/10/08 05:01:17;;;;;;;23.90;20.40;;;7.70;99.90;;;;;;2654812;28;20199;-71
2021/10/08 05:02:34;;;;;;;26.80;22.10;;;7.70;99.90;;;;;;2650553;28;20575;-71
2021/10/08 05:03:53;;;;;;;21.70;19.43;;;7.60;99.90;;;;;;2653858;28;20208;-71
2021/10/08 05:05:11;;;;;;;23.13;20.83;;;7.60;99.90;;;;;;2652239;28;20203;-71
2021/10/08 05:06:29;;;;;;;27.13;21.25;;;7.60;99.90;;;;;;2657259;28;20221;-71
2021/10/08 05:07:48;;;;;;;23.02;20.00;;;7.60;99.90;;;;;;2655375;28;20828;-71
2021/10/08 05:09:06;;;;;;;23.42;21.00;;;7.60;99.90;;;;;;2656942;28;20242;-71
2021/10/08 05:10:25;;;;;;;21.95;19.65;;;7.60;99.90;;;;;;2657365;28;20199;-72
2021/10/08 05:11:43;;;;;;;24.20;20.80;;;7.60;99.90;;;;;;2657332;28;20218;-71
2021/10/08 05:13:02;;;;;;;24.05;19.50;;;7.60;99.90;;;;;;2657260;28;20261;-71
2021/10/08 05:14:20;;;;;;;22.77;19.35;;;7.60;99.90;;;;;;2650323;28;20207;-71
2021/10/08 05:15:38;;;;;;;22.75;18.45;;;7.60;99.90;;;;;;2652091;28;20211;-71
2021/10/08 05:16:57;;;;;;;22.92;19.92;;;7.50;99.90;;;;;;2656977;28;20199;-71
2021/10/08 05:18:15;;;;;;;21.45;19.02;;;7.60;99.90;;;;;;2657902;28;20190;-71
2021/10/08 05:19:34;;;;;;;25.10;19.92;;;7.50;99.90;;;;;;2657607;28;20215;-71
2021/10/08 05:20:52;;;;;;;25.13;21.48;;;7.50;99.90;;;;;;2657550;28;20257;-71
2021/10/08 05:22:11;;;;;;;23.15;20.60;;;7.50;99.90;;;;;;2657037;28;20231;-71
2021/10/08 05:23:29;;;;;;;26.35;21.05;;;7.50;99.90;;;;;;2657379;28;20257;-71
2021/10/08 05:24:48;;;;;;;29.05;22.58;;;7.50;99.90;;;;;;2656501;28;20206;-71
2021/10/08 05:26:05;;;;;;;23.55;20.55;;;7.50;99.90;;;;;;2657145;28;20203;-71
2021/10/08 05:27:24;;;;;;;27.53;20.30;;;7.50;99.90;;;;;;2657012;28;20738;-71
2021/10/08 05:28:42;;;;;;;24.83;21.40;;;7.60;99.90;;;;;;2657181;28;20689;-71
2021/10/08 05:29:59;;;;;;;25.25;20.50;;;7.50;99.90;;;;;;2659289;28;20191;-71
2021/10/08 05:31:18;;;;;;;24.07;21.53;;;7.60;99.90;;;;;;2655439;28;20330;-70
2021/10/08 05:32:36;;;;;;;24.52;19.30;;;7.60;99.90;;;;;;2657119;28;20300;-70
2021/10/08 05:33:55;;;;;;;24.90;22.27;;;7.60;99.90;;;;;;2656929;28;20565;-69
2021/10/08 05:35:13;;;;;;;23.75;21.00;;;7.60;99.90;;;;;;2654415;28;20203;-70
2021/10/08 05:36:32;;;;;;;27.15;21.30;;;7.60;99.90;;;;;;2657163;28;20199;-70
2021/10/08 05:37:50;;;;;;;25.30;20.85;;;7.60;99.90;;;;;;2657320;28;20246;-70
2021/10/08 05:39:08;;;;;;;25.77;20.40;;;7.60;99.90;;;;;;2657540;28;20206;-70
2021/10/08 05:40:27;;;;;;;25.85;22.75;;;7.50;99.90;;;;;;2653166;28;20634;-70
2021/10/08 05:41:45;;;;;;;25.73;22.33;;;7.60;99.90;;;;;;2657289;28;20648;-69
2021/10/08 05:43:04;;;;;;;23.00;20.27;;;7.60;99.90;;;;;;2656679;28;20207;-70
2021/10/08 05:44:22;;;;;;;25.00;21.10;;;7.60;99.90;;;;;;2656570;28;20202;-73
2021/10/08 05:45:41;;;;;;;27.20;22.08;;;7.60;99.90;;;;;;2659832;28;20203;-71
2021/10/08 05:46:59;;;;;;;24.40;21.63;;;7.60;99.90;;;;;;2657054;28;20238;-70
2021/10/08 05:48:17;;;;;;;26.67;21.73;;;7.60;99.90;;;;;;2657248;28;20595;-70
2021/10/08 05:49:36;;;;;;;27.50;22.67;;;7.60;99.90;;;;;;2656752;28;20549;-70
2021/10/08 05:50:54;;;;;;;26.95;22.13;;;7.60;99.90;;;;;;2653335;28;20861;-70
2021/10/08 05:52:13;;;;;;;27.60;22.65;;;7.60;99.90;;;;;;2648820;28;20207;-70
2021/10/08 05:53:31;;;;;;;25.75;21.08;;;7.80;99.90;;;;;;2655465;28;20202;-70
2021/10/08 05:54:50;;;;;;;27.10;22.00;;;7.80;99.90;;;;;;2655607;28;20207;-70
2021/10/08 05:56:08;;;;;;;25.50;20.58;;;7.70;99.90;;;;;;2658007;28;20208;-70
2021/10/08 05:57:26;;;;;;;27.95;24.95;;;7.70;99.90;;;;;;2657200;28;20199;-70
2021/10/08 05:58:45;;;;;;;26.20;21.30;;;7.70;99.90;;;;;;2655826;28;20229;-70
2021/10/08 06:00:03;;;;;;;25.63;22.85;;;7.70;99.90;;;;;;2657454;28;20202;-70
2021/10/08 06:01:22;;;;;;;24.63;21.00;;;7.60;99.90;;;;;;2651300;28;20211;-71
2021/10/08 06:02:40;;;;;;;24.95;22.25;;;7.70;99.90;;;;;;2658139;28;20211;-71
2021/10/08 06:04:01;;;;;;;25.95;21.80;;;7.70;99.90;;;;;;2658571;28;20195;-72
2021/10/08 06:05:19;;;;;;;29.48;24.42;;;7.80;99.90;;;;;;2658581;28;20630;-70
2021/10/08 06:06:38;;;;;;;27.65;22.38;;;7.80;99.90;;;;;;2662169;28;20210;-71
2021/10/08 06:07:56;;;;;;;22.65;19.83;;;7.80;99.90;;;;;;2657842;28;20272;-70
2021/10/08 06:09:15;;;;;;;25.95;21.33;;;7.80;99.90;;;;;;2658046;28;20218;-70
2021/10/08 06:10:32;;;;;;;28.25;22.75;;;7.80;99.90;;;;;;2659186;28;20203;-70
2021/10/08 06:11:50;;;;;;;25.97;21.97;;;7.80;99.90;;;;;;2658999;28;20294;-69
2021/10/08 06:13:08;;;;;;;26.02;21.48;;;7.90;99.90;;;;;;2658612;28;20203;-71
2021/10/08 06:14:27;;;;;;;28.80;22.27;;;7.90;99.90;;;;;;2657800;28;20234;-71
2021/10/08 06:15:45;;;;;;;28.15;22.13;;;7.80;99.90;;;;;;2654593;28;20465;-70
2021/10/08 06:17:04;;;;;;;25.48;22.77;;;7.90;99.90;;;;;;2658850;28;20206;-70
2021/10/08 06:18:22;;;;;;;26.10;22.17;;;8.00;99.90;;;;;;2658401;28;20215;-72
2021/10/08 06:19:41;;;;;;;27.67;22.63;;;8.00;99.90;;;;;;2658429;28;20677;-71
2021/10/08 06:20:59;;;;;;;25.55;21.48;;;8.00;99.90;;;;;;2658423;28;20284;-70
2021/10/08 06:22:17;;;;;;;24.63;22.02;;;8.10;99.90;;;;;;2658794;28;20249;-70
2021/10/08 06:23:35;;;;;;;27.13;21.20;;;8.00;99.90;;;;;;2663418;28;20247;-71
2021/10/08 06:24:53;;;;;;;28.38;22.73;;;8.00;99.90;;;;;;2658088;28;20286;-71
2021/10/08 06:26:11;;;;;;;29.07;22.43;;;8.10;99.90;;;;;;2658775;28;20205;-70
2021/10/08 06:27:30;;;;;;;27.17;23.13;;;8.10;99.90;;;;;;2658612;28;20230;-70
2021/10/08 06:28:48;;;;;;;25.55;22.70;;;8.10;99.90;;;;;;2659117;28;20206;-70
2021/10/08 06:30:07;;;;;;;26.45;22.50;;;8.20;99.90;;;;;;2658876;28;20199;-71
2021/10/08 06:31:31;;;;;;;23.52;21.10;;;8.20;99.90;;;;;;2658735;28;20203;-70
2021/10/08 06:32:49;;;;;;;29.92;24.67;;;8.20;99.90;;;;;;2658257;28;20691;-70
2021/10/08 06:34:07;;;;;;;24.13;21.50;;;8.20;99.90;;;;;;2658741;28;20199;-70
2021/10/08 06:35:26;;;;;;;23.95;21.15;;;8.30;99.90;;;;;;2658244;28;20199;-71
2021/10/08 06:36:44;;;;;;;25.08;22.50;;;8.30;99.90;;;;;;2651005;28;20207;-70
2021/10/08 06:38:03;;;;;;;26.25;23.45;;;8.30;99.90;;;;;;2660297;28;20210;-71
2021/10/08 06:39:21;;;;;;;25.73;23.13;;;8.40;99.90;;;;;;2661865;28;20203;-71
2021/10/08 06:40:40;;;;;;;28.70;22.52;;;8.50;99.90;;;;;;2658747;28;20207;-70
2021/10/08 06:41:58;;;;;;;22.13;19.83;;;8.60;99.90;;;;;;2659287;28;20231;-71